Terminal Aerodrome Forecast
Issued by NWS

Home | Current Version | Previous Version | Text Only | Print | Product List | Glossary On
Versions: 1 2 3 4 5 6 7 8 9 10 11 12 13 14 15 16 17 18 19 20 21 22 23 24 25 26 27 28 29
000
FTUS44 KFWD 240909 AAB
TAFGKY
TAF AMD
KGKY 240909Z 2409/2506 23008KT P6SM -RA SCT050 BKN140
     FM241100 18008KT P6SM BKN150
     FM242000 19009KT P6SM VCTS SCT060CB BKN120
     FM250000 16007KT P6SM BKN120=

USA.gov is the U.S. government's official web portal to all federal, state and local government web resources and services.